Time;durP1;ratioP1;P1;durP2;ratioP2;P2;SDS_P1;SDS_P2;PMS_P1;PMS_P2;Temp;Humidity;BMP_temperature;BMP_pressure;BME280_temperature;BME280_humidity;BME280_pressure;Samples;Min_cycle;Max_cycle;Signal;HPM_P1;HPM_P2
2021/10/05 00:01:43;;;;;;;0.90;0.50;;;;;;;18.16;61.94;101059.63;5051728;28;20344;-65
2021/10/05 00:04:09;;;;;;;0.95;0.40;;;;;;;18.07;61.48;101057.59;5060260;28;20352;-65
2021/10/05 00:06:34;;;;;;;1.48;0.80;;;;;;;18.10;61.93;101052.09;5058847;28;20039;-65
2021/10/05 00:09:01;;;;;;;1.00;0.60;;;;;;;18.09;61.86;101046.91;5048386;28;20029;-65
2021/10/05 00:11:27;;;;;;;0.77;0.57;;;;;;;18.09;62.03;101038.94;5056749;28;20059;-65
2021/10/05 00:13:52;;;;;;;1.33;0.60;;;;;;;18.06;62.00;101045.28;5041684;28;20049;-65
2021/10/05 00:16:18;;;;;;;0.40;0.40;;;;;;;18.06;62.08;101037.34;5038868;28;20324;-65
2021/10/05 00:18:43;;;;;;;2.05;0.65;;;;;;;18.02;61.89;101031.41;5055554;28;20052;-65
2021/10/05 00:21:09;;;;;;;0.63;0.40;;;;;;;17.99;61.44;101022.81;5059710;28;20198;-65
2021/10/05 00:23:34;;;;;;;0.60;0.60;;;;;;;17.98;62.09;101021.13;5045203;28;20051;-65
2021/10/05 00:26:00;;;;;;;0.40;0.40;;;;;;;18.04;62.10;101012.75;5040080;28;20079;-65
2021/10/05 00:28:25;;;;;;;0.88;0.40;;;;;;;18.02;62.27;101014.66;5048698;28;20041;-65
2021/10/05 00:30:51;;;;;;;0.40;0.30;;;;;;;18.02;61.64;101010.22;5059670;28;20037;-65
2021/10/05 00:33:16;;;;;;;1.88;0.50;;;;;;;17.97;61.94;101004.41;5049024;28;20053;-65
2021/10/05 00:35:41;;;;;;;0.70;0.40;;;;;;;17.90;61.74;101010.22;5037871;28;20081;-65
2021/10/05 00:38:07;;;;;;;2.65;0.70;;;;;;;17.90;61.74;101011.09;5040528;28;20233;-65
2021/10/05 00:40:32;;;;;;;1.55;0.50;;;;;;;17.98;62.25;101007.88;5054329;28;20044;-65
2021/10/05 00:42:58;;;;;;;0.75;0.50;;;;;;;17.96;62.13;101015.09;5052529;28;20281;-65
2021/10/05 00:45:23;;;;;;;0.70;0.50;;;;;;;17.94;61.85;101009.06;5047404;28;20060;-65
2021/10/05 00:47:49;;;;;;;0.80;0.35;;;;;;;17.89;61.37;101004.06;5046634;28;20272;-65
2021/10/05 00:50:15;;;;;;;0.70;0.50;;;;;;;17.93;61.99;100991.47;5049251;28;20355;-65
2021/10/05 00:52:43;;;;;;;0.55;0.40;;;;;;;17.93;61.87;101002.06;5054344;28;20064;-65
2021/10/05 00:55:09;;;;;;;0.40;0.40;;;;;;;17.92;61.91;101003.00;5037746;28;20121;-65
2021/10/05 00:57:34;;;;;;;1.90;0.50;;;;;;;17.95;62.38;101006.28;5052386;28;20351;-65
2021/10/05 01:00:00;;;;;;;1.65;0.60;;;;;;;17.90;61.90;100995.19;5057052;28;20033;-65
2021/10/05 01:05:02;;;;;;;0.98;0.60;;;;;;;17.91;61.43;100998.66;5036382;28;20044;-65
2021/10/05 01:07:27;;;;;;;1.38;0.47;;;;;;;17.89;62.09;100990.81;5052167;28;20075;-65
2021/10/05 01:09:53;;;;;;;0.52;0.40;;;;;;;17.81;61.44;100988.69;5057759;28;20338;-65
2021/10/05 01:12:18;;;;;;;0.57;0.40;;;;;;;17.84;62.49;100977.88;5056633;28;20330;-65
2021/10/05 01:14:44;;;;;;;1.23;0.52;;;;;;;17.88;62.27;100977.69;5053769;28;20057;-65
2021/10/05 01:17:09;;;;;;;0.88;0.43;;;;;;;17.89;62.47;100966.13;5038076;28;20040;-65
2021/10/05 01:19:35;;;;;;;0.88;0.50;;;;;;;17.81;62.01;100966.66;5052298;28;20273;-65
2021/10/05 01:22:00;;;;;;;0.40;0.40;;;;;;;17.79;60.88;100973.81;5039205;28;20069;-65
2021/10/05 01:24:26;;;;;;;0.40;0.40;;;;;;;17.82;61.88;100969.16;5054945;28;20082;-65
2021/10/05 01:26:53;;;;;;;0.88;0.40;;;;;;;17.77;62.80;100962.50;5037669;28;20452;-65
2021/10/05 01:29:19;;;;;;;0.60;0.60;;;;;;;17.78;61.28;100953.59;5037941;28;20072;-65
2021/10/05 01:31:46;;;;;;;0.90;0.43;;;;;;;17.80;61.97;100957.84;5055438;28;20350;-65
2021/10/05 01:34:12;;;;;;;1.25;0.50;;;;;;;17.76;61.90;100952.88;5058006;28;20044;-65
2021/10/05 01:36:37;;;;;;;0.50;0.45;;;;;;;17.75;62.00;100948.50;5046584;28;20657;-65
2021/10/05 01:39:04;;;;;;;1.50;0.55;;;;;;;17.79;62.21;100945.56;5049650;28;20309;-65
2021/10/05 01:41:29;;;;;;;1.60;0.40;;;;;;;17.69;62.21;100949.78;5047010;28;20040;-65
2021/10/05 01:43:55;;;;;;;1.83;0.57;;;;;;;17.75;62.22;100943.22;5057970;28;20120;-65
2021/10/05 01:46:20;;;;;;;0.60;0.40;;;;;;;17.69;61.78;100951.59;5055817;28;20047;-65
2021/10/05 01:48:46;;;;;;;0.40;0.40;;;;;;;17.71;62.38;100950.53;5057818;28;20326;-66
2021/10/05 01:51:11;;;;;;;0.80;0.40;;;;;;;17.65;62.52;100937.72;5047081;28;20252;-65
2021/10/05 01:53:37;;;;;;;0.60;0.50;;;;;;;17.68;62.34;100945.44;5046649;28;20053;-65
2021/10/05 01:56:03;;;;;;;1.13;0.60;;;;;;;17.60;61.86;100940.66;5048755;28;20055;-65
2021/10/05 01:58:29;;;;;;;0.45;0.30;;;;;;;17.68;62.23;100931.34;5048632;28;20117;-65
2021/10/05 02:00:54;;;;;;;3.30;0.50;;;;;;;17.65;62.11;100924.47;5053907;28;20252;-65
2021/10/05 02:03:19;;;;;;;0.95;0.40;;;;;;;17.64;62.27;100928.06;5055723;28;20071;-65
2021/10/05 02:05:45;;;;;;;0.63;0.40;;;;;;;17.62;61.95;100908.78;5043193;28;20091;-65
2021/10/05 02:08:11;;;;;;;0.43;0.43;;;;;;;17.64;62.05;100898.94;5056098;28;20124;-65
2021/10/05 02:10:36;;;;;;;0.65;0.45;;;;;;;17.59;62.14;100898.41;5043877;28;20040;-65
2021/10/05 02:13:02;;;;;;;0.68;0.50;;;;;;;17.64;62.10;100893.63;5056385;28;20079;-65
2021/10/05 02:15:27;;;;;;;1.65;0.40;;;;;;;17.60;62.58;100886.88;5055400;28;20043;-65
2021/10/05 02:17:53;;;;;;;0.63;0.50;;;;;;;17.61;62.37;100884.13;5037582;28;20363;-65
2021/10/05 02:20:18;;;;;;;0.70;0.45;;;;;;;17.58;62.45;100879.03;5053665;28;20247;-65
2021/10/05 02:22:44;;;;;;;0.90;0.40;;;;;;;17.58;62.07;100879.03;5038892;28;20037;-65
2021/10/05 02:25:09;;;;;;;1.00;0.60;;;;;;;17.59;62.68;100875.44;5023622;28;20024;-65
2021/10/05 02:27:35;;;;;;;4.30;0.60;;;;;;;17.56;62.21;100874.81;5040452;28;20033;-65
2021/10/05 02:30:00;;;;;;;0.52;0.50;;;;;;;17.54;62.37;100860.81;5038990;28;20041;-65
2021/10/05 02:32:26;;;;;;;0.85;0.30;;;;;;;17.50;62.17;100862.84;5049877;28;20047;-64
2021/10/05 02:34:51;;;;;;;0.57;0.40;;;;;;;17.50;62.63;100859.31;5056899;28;20381;-64
2021/10/05 02:37:16;;;;;;;0.60;0.38;;;;;;;17.51;62.38;100850.44;5045050;28;20067;-64
2021/10/05 02:39:42;;;;;;;0.35;0.35;;;;;;;17.46;61.84;100851.63;5037025;28;20136;-64
2021/10/05 02:42:08;;;;;;;0.55;0.50;;;;;;;17.43;61.98;100849.16;5044730;28;20052;-64
2021/10/05 02:44:33;;;;;;;0.82;0.40;;;;;;;17.49;62.61;100836.47;5037027;28;20045;-65
2021/10/05 02:46:59;;;;;;;0.60;0.40;;;;;;;17.46;62.43;100825.13;5028597;28;20410;-65
2021/10/05 02:49:24;;;;;;;0.52;0.40;;;;;;;17.44;62.06;100823.53;5056718;28;20336;-64
2021/10/05 02:51:50;;;;;;;0.75;0.43;;;;;;;17.39;62.21;100823.00;5049772;28;20045;-64
2021/10/05 02:54:15;;;;;;;0.82;0.40;;;;;;;17.43;62.20;100820.06;5036765;28;20372;-64
2021/10/05 02:56:41;;;;;;;1.15;0.43;;;;;;;17.38;62.55;100810.75;5046251;28;20044;-65
2021/10/05 02:59:06;;;;;;;0.38;0.30;;;;;;;17.43;62.34;100809.47;5037698;28;20075;-65
2021/10/05 03:01:31;;;;;;;1.20;0.40;;;;;;;17.37;61.97;100807.25;5050053;28;20052;-65
2021/10/05 03:03:57;;;;;;;0.55;0.30;;;;;;;17.36;62.28;100799.41;5035822;28;20182;-65
2021/10/05 03:06:22;;;;;;;0.50;0.40;;;;;;;17.40;62.01;100801.72;5051212;28;20049;-65
2021/10/05 03:08:52;;;;;;;0.68;0.52;;;;;;;17.34;62.71;100796.88;5040300;28;20094;-65
2021/10/05 03:11:17;;;;;;;0.65;0.50;;;;;;;17.35;62.22;100787.97;5051526;28;20443;-65
2021/10/05 03:13:43;;;;;;;0.57;0.40;;;;;;;17.32;62.92;100788.19;5054901;28;20032;-65
2021/10/05 03:16:08;;;;;;;1.20;0.40;;;;;;;17.30;62.68;100784.81;5039818;28;20312;-65
2021/10/05 03:18:34;;;;;;;2.30;0.70;;;;;;;17.28;61.91;100773.47;5053775;28;20033;-65
2021/10/05 03:20:59;;;;;;;0.50;0.50;;;;;;;17.30;62.39;100760.13;5056760;28;20048;-65
2021/10/05 03:23:25;;;;;;;0.35;0.35;;;;;;;17.30;62.09;100763.63;5040349;28;20098;-65
2021/10/05 03:25:50;;;;;;;0.90;0.40;;;;;;;17.29;62.47;100764.56;5036886;28;20046;-65
2021/10/05 03:28:16;;;;;;;0.40;0.40;;;;;;;17.25;61.77;100750.72;5048023;28;20243;-65
2021/10/05 03:30:41;;;;;;;0.47;0.30;;;;;;;17.30;62.25;100747.75;5054409;28;20037;-65
2021/10/05 03:33:06;;;;;;;0.28;0.28;;;;;;;17.26;62.18;100748.91;5049616;28;20047;-65
2021/10/05 03:35:32;;;;;;;0.50;0.40;;;;;;;17.22;62.37;100740.34;5055948;28;20147;-65
2021/10/05 03:37:57;;;;;;;0.60;0.30;;;;;;;17.25;62.20;100734.84;5054629;28;20032;-65
2021/10/05 03:40:23;;;;;;;0.40;0.40;;;;;;;17.21;62.34;100740.47;5041444;28;20270;-65
2021/10/05 03:42:48;;;;;;;0.35;0.25;;;;;;;17.20;62.37;100731.66;5037744;28;20047;-65
2021/10/05 03:45:14;;;;;;;2.05;0.47;;;;;;;17.13;62.36;100735.69;5055133;28;20036;-65
2021/10/05 03:47:39;;;;;;;0.45;0.40;;;;;;;17.13;62.63;100732.19;5046284;28;20041;-65
2021/10/05 03:50:05;;;;;;;0.70;0.32;;;;;;;17.22;62.27;100729.75;5054353;28;20043;-65
2021/10/05 03:52:31;;;;;;;0.43;0.35;;;;;;;17.16;62.04;100719.59;5054576;28;20041;-65
2021/10/05 03:54:56;;;;;;;0.30;0.30;;;;;;;17.20;62.69;100721.06;5056303;28;20366;-65
2021/10/05 03:57:21;;;;;;;0.50;0.35;;;;;;;17.16;62.60;100716.97;5041481;28;20033;-66
2021/10/05 03:59:47;;;;;;;0.38;0.25;;;;;;;17.19;62.41;100710.59;5058272;28;20336;-65
2021/10/05 04:02:12;;;;;;;0.20;0.20;;;;;;;17.16;62.22;100698.44;5048255;28;20044;-65
2021/10/05 04:04:38;;;;;;;0.30;0.30;;;;;;;17.15;62.50;100694.09;5039453;28;20152;-65
2021/10/05 04:07:03;;;;;;;0.70;0.38;;;;;;;17.15;62.71;100695.91;5048739;28;20047;-65
2021/10/05 04:09:28;;;;;;;1.15;0.40;;;;;;;17.08;62.50;100693.69;5042805;28;20382;-65
2021/10/05 04:11:54;;;;;;;0.40;0.40;;;;;;;17.16;62.38;100687.00;5040957;28;20037;-65
2021/10/05 04:14:19;;;;;;;0.50;0.40;;;;;;;17.15;62.41;100680.84;5050664;28;20057;-65
2021/10/05 04:16:45;;;;;;;0.47;0.40;;;;;;;17.13;62.18;100674.00;5039710;28;20073;-65
2021/10/05 04:19:10;;;;;;;0.30;0.30;;;;;;;17.05;62.57;100674.53;5053951;28;20340;-65
2021/10/05 04:21:36;;;;;;;0.32;0.20;;;;;;;17.10;62.43;100669.78;5040785;28;20041;-65
2021/10/05 04:24:01;;;;;;;0.63;0.40;;;;;;;17.10;62.58;100672.44;5047112;28;20041;-65
2021/10/05 04:26:26;;;;;;;0.57;0.40;;;;;;;17.09;62.51;100673.38;5039344;28;20045;-65
2021/10/05 04:28:52;;;;;;;0.63;0.63;;;;;;;17.02;62.54;100659.72;5040862;28;20374;-65
2021/10/05 04:31:17;;;;;;;0.50;0.40;;;;;;;16.99;62.69;100667.88;5054588;28;20082;-65
2021/10/05 04:33:43;;;;;;;0.55;0.30;;;;;;;17.00;62.67;100664.28;5049810;28;20045;-65
2021/10/05 04:36:08;;;;;;;1.05;0.43;;;;;;;16.98;62.40;100671.47;5039298;28;20308;-65
2021/10/05 04:38:33;;;;;;;0.50;0.30;;;;;;;17.01;62.61;100665.97;5045837;28;20068;-65
2021/10/05 04:40:59;;;;;;;0.80;0.30;;;;;;;17.02;62.45;100659.72;5047987;28;20052;-65
2021/10/05 04:43:24;;;;;;;1.42;0.85;;;;;;;17.00;62.51;100663.44;5043936;28;20059;-65
2021/10/05 04:45:50;;;;;;;0.22;0.20;;;;;;;16.94;62.73;100670.00;5057541;28;20044;-65
2021/10/05 04:48:15;;;;;;;0.45;0.30;;;;;;;17.00;62.32;100656.34;5045082;28;20037;-65
2021/10/05 04:50:41;;;;;;;0.63;0.30;;;;;;;17.02;62.71;100657.06;5058515;28;20484;-65
2021/10/05 04:53:06;;;;;;;0.57;0.30;;;;;;;16.98;62.65;100647.66;5056564;28;20455;-65
2021/10/05 04:55:32;;;;;;;0.30;0.20;;;;;;;17.01;62.35;100642.16;5052736;28;20235;-66
2021/10/05 04:58:00;;;;;;;0.38;0.35;;;;;;;16.89;62.02;100643.03;5050714;28;20137;-65
2021/10/05 05:00:26;;;;;;;0.40;0.40;;;;;;;16.88;62.53;100642.19;5055102;28;20328;-65
2021/10/05 05:02:51;;;;;;;0.55;0.30;;;;;;;16.94;62.43;100632.97;5056890;28;20437;-65
2021/10/05 05:05:17;;;;;;;0.35;0.30;;;;;;;16.95;62.49;100631.16;5043373;28;20043;-65
2021/10/05 05:07:42;;;;;;;0.52;0.52;;;;;;;16.93;62.66;100625.97;5042571;28;20072;-65
2021/10/05 05:10:08;;;;;;;0.98;0.30;;;;;;;17.23;63.07;100627.41;5054690;28;20100;-64
2021/10/05 05:12:34;;;;;;;0.60;0.47;;;;;;;17.01;62.23;100625.47;5057992;28;20355;-65
2021/10/05 05:15:00;;;;;;;0.77;0.40;;;;;;;16.96;62.75;100615.19;5056972;28;20224;-65
2021/10/05 05:17:25;;;;;;;0.30;0.30;;;;;;;16.88;63.66;100609.59;5040145;28;20320;-65
2021/10/05 05:19:51;;;;;;;0.52;0.40;;;;;;;16.85;63.63;100597.44;5050802;28;20051;-65
2021/10/05 05:22:16;;;;;;;0.52;0.30;;;;;;;16.91;63.78;100604.09;5058837;28;20029;-65
2021/10/05 05:24:42;;;;;;;3.80;0.52;;;;;;;16.89;63.35;100593.59;5046804;28;20030;-65
2021/10/05 05:27:07;;;;;;;0.77;0.40;;;;;;;16.82;63.91;100600.25;5054719;28;20037;-65
2021/10/05 05:29:33;;;;;;;2.17;0.40;;;;;;;16.79;64.08;100596.97;5048521;28;20037;-65
2021/10/05 05:31:58;;;;;;;3.38;0.40;;;;;;;16.75;63.95;100593.69;5051193;28;20033;-65
2021/10/05 05:34:27;;;;;;;1.77;0.80;;;;;;;16.78;64.32;100590.03;5049959;28;20079;-65
2021/10/05 05:36:52;;;;;;;2.67;0.50;;;;;;;16.75;64.26;100591.06;5054642;28;20275;-65
2021/10/05 05:39:18;;;;;;;1.00;0.60;;;;;;;16.90;64.24;100589.19;5051242;28;20056;-65
2021/10/05 05:41:46;;;;;;;0.93;0.50;;;;;;;16.86;64.13;100587.69;5046258;28;20163;-64
2021/10/05 05:44:12;;;;;;;2.17;0.60;;;;;;;16.79;64.11;100586.41;5042886;28;20037;-64
2021/10/05 05:46:38;;;;;;;3.58;0.50;;;;;;;16.81;64.47;100587.16;5043240;28;20037;-64
2021/10/05 05:49:04;;;;;;;4.95;0.65;;;;;;;16.77;64.40;100583.03;5054262;28;20289;-65
2021/10/05 05:51:29;;;;;;;4.72;0.68;;;;;;;16.67;64.74;100586.31;5050990;28;20036;-64
2021/10/05 05:53:54;;;;;;;2.22;0.70;;;;;;;16.73;64.45;100578.91;5047275;28;20040;-65
2021/10/05 05:56:20;;;;;;;2.75;0.82;;;;;;;16.78;64.21;100571.50;5044359;28;20041;-65
2021/10/05 05:58:48;;;;;;;5.55;0.80;;;;;;;16.73;64.59;100573.63;5048179;28;20029;-65
2021/10/05 06:01:14;;;;;;;6.15;0.90;;;;;;;16.75;63.89;100569.06;5040157;28;20046;-65
2021/10/05 06:03:40;;;;;;;5.43;1.80;;;;;;;16.72;63.95;100562.22;5046128;28;20124;-65
2021/10/05 06:06:05;;;;;;;6.65;1.33;;;;;;;16.69;64.20;100557.97;5051285;28;20095;-72
2021/10/05 06:08:30;;;;;;;6.88;1.90;;;;;;;16.69;64.43;100551.84;5045555;28;20236;-65
2021/10/05 06:10:56;;;;;;;7.82;2.40;;;;;;;16.67;65.01;100546.66;5048179;28;20032;-65
2021/10/05 06:13:21;;;;;;;7.28;1.77;;;;;;;16.67;64.84;100537.88;5043824;28;20302;-64
2021/10/05 06:15:47;;;;;;;4.97;1.90;;;;;;;16.67;64.34;100541.38;5046300;28;20044;-65
2021/10/05 06:18:12;;;;;;;14.10;2.38;;;;;;;16.77;64.77;100544.22;5047368;28;20040;-65
2021/10/05 06:20:37;;;;;;;5.05;1.70;;;;;;;16.87;64.68;100547.06;5045467;28;20041;-65
2021/10/05 06:23:03;;;;;;;8.48;2.28;;;;;;;16.90;64.00;100544.22;5046945;28;20831;-65
2021/10/05 06:25:29;;;;;;;8.00;2.05;;;;;;;17.01;64.17;100536.34;5045763;28;20048;-65
2021/10/05 06:27:56;;;;;;;12.73;2.35;;;;;;;17.11;63.33;100539.16;5042595;28;20037;-65
2021/10/05 06:30:22;;;;;;;8.70;1.90;;;;;;;17.22;62.99;100533.91;5038217;28;20370;-65
2021/10/05 06:32:53;;;;;;;11.80;2.33;;;;;;;17.21;63.52;100531.41;5052588;28;20044;-65
2021/10/05 06:35:19;;;;;;;7.43;2.45;;;;;;;17.19;62.97;100535.94;5050455;28;20032;-65
2021/10/05 06:37:45;;;;;;;8.93;2.85;;;;;;;17.27;63.16;100531.78;5043436;28;20048;-65
2021/10/05 06:40:11;;;;;;;7.65;1.70;;;;;;;17.33;62.91;100532.28;5052386;28;20091;-65
2021/10/05 06:42:37;;;;;;;8.25;1.80;;;;;;;17.33;63.07;100517.25;5047989;28;20413;-64
2021/10/05 06:45:06;;;;;;;11.38;2.22;;;;;;;17.47;63.22;100521.53;5054400;28;20037;-65
2021/10/05 06:47:32;;;;;;;8.32;1.60;;;;;;;17.65;62.59;100508.72;5049566;28;20037;-65
2021/10/05 06:49:58;;;;;;;9.25;2.03;;;;;;;17.88;61.99;100508.78;5038903;28;20090;-63
2021/10/05 06:52:24;;;;;;;3.78;1.42;;;;;;;18.08;61.57;100509.91;5047466;28;20064;-65
2021/10/05 06:54:49;;;;;;;4.75;1.55;;;;;;;18.19;61.21;100508.13;5051764;28;20041;-65
2021/10/05 06:57:15;;;;;;;6.97;1.60;;;;;;;18.27;60.95;100504.03;5048431;28;20063;-64
2021/10/05 06:59:40;;;;;;;8.50;1.58;;;;;;;18.41;60.86;100507.28;5049418;28;20335;-64
2021/10/05 07:02:06;;;;;;;6.63;2.97;;;;;;;18.10;57.61;100500.88;5049500;28;20131;-62
2021/10/05 07:04:32;;;;;;;7.90;2.05;;;;;;;16.58;61.43;100497.09;5043019;28;20072;-64
2021/10/05 07:06:57;;;;;;;4.72;1.30;;;;;;;16.16;62.53;100485.13;5042213;28;20037;-64
2021/10/05 07:09:23;;;;;;;6.13;1.20;;;;;;;16.14;62.75;100489.66;5047318;28;20044;-64
2021/10/05 07:11:48;;;;;;;2.35;1.15;;;;;;;16.52;61.55;100484.31;5049303;28;20047;-64
2021/10/05 07:14:14;;;;;;;4.50;1.40;;;;;;;16.66;60.83;100470.09;5041680;28;20045;-64
2021/10/05 07:16:39;;;;;;;6.55;1.13;;;;;;;16.69;61.55;100473.34;5048016;28;20254;-65
2021/10/05 07:19:04;;;;;;;2.67;1.10;;;;;;;16.68;61.11;100468.19;5047618;28;20041;-65
2021/10/05 07:21:30;;;;;;;4.20;1.25;;;;;;;17.07;60.86;100468.91;5049469;28;20025;-65
2021/10/05 07:23:55;;;;;;;4.63;1.10;;;;;;;16.91;59.63;100460.41;5049511;28;20078;-65
2021/10/05 07:26:21;;;;;;;2.60;0.88;;;;;;;17.20;59.67;100460.91;5050416;28;20362;-65
2021/10/05 07:28:46;;;;;;;2.67;1.08;;;;;;;17.62;58.19;100458.63;5049053;28;20041;-64
2021/10/05 07:31:12;;;;;;;1.40;0.88;;;;;;;17.43;58.39;100452.09;5053610;28;20344;-63
2021/10/05 07:33:38;;;;;;;3.53;1.20;;;;;;;17.33;58.63;100451.09;5054054;28;20116;-64
2021/10/05 07:36:03;;;;;;;3.83;1.20;;;;;;;16.89;59.89;100440.22;5050153;28;20274;-64
2021/10/05 07:38:29;;;;;;;5.10;0.80;;;;;;;17.60;58.53;100432.25;5047622;28;20057;-64
2021/10/05 07:40:54;;;;;;;2.58;0.93;;;;;;;18.00;57.66;100433.66;5052678;28;20041;-65
2021/10/05 07:43:19;;;;;;;3.20;0.80;;;;;;;17.70;56.82;100432.41;5055126;28;20043;-65
2021/10/05 07:45:47;;;;;;;9.02;1.13;;;;;;;18.31;56.74;100434.72;5048114;28;20041;-67
2021/10/05 07:48:12;;;;;;;3.78;1.05;;;;;;;18.38;55.97;100427.16;5051257;28;20295;-66
2021/10/05 07:50:37;;;;;;;3.03;1.00;;;;;;;18.04;56.51;100416.56;5053547;28;20041;-65
2021/10/05 07:53:03;;;;;;;2.75;0.85;;;;;;;18.05;56.41;100406.84;5049979;28;20041;-65
2021/10/05 07:55:29;;;;;;;4.85;1.10;;;;;;;18.83;55.10;100397.91;5050478;28;20209;-66
2021/10/05 07:57:54;;;;;;;6.60;1.20;;;;;;;18.58;54.60;100394.56;5046955;28;20035;-66
2021/10/05 08:00:20;;;;;;;1.42;0.80;;;;;;;18.80;55.39;100392.81;5046908;28;20052;-65
2021/10/05 08:02:45;;;;;;;2.25;1.00;;;;;;;18.37;54.93;100375.94;5052952;28;20337;-65
2021/10/05 08:05:13;;;;;;;2.55;1.05;;;;;;;18.90;55.28;100374.31;5051086;28;20055;-66
2021/10/05 08:07:38;;;;;;;1.77;0.90;;;;;;;18.15;55.48;100365.38;5049903;28;20367;-65
2021/10/05 08:10:04;;;;;;;3.25;0.80;;;;;;;18.68;54.84;100360.19;5050095;28;20131;-65
2021/10/05 08:12:30;;;;;;;8.52;1.00;;;;;;;19.32;52.65;100355.78;5056855;28;20239;-65
2021/10/05 08:14:56;;;;;;;5.03;1.00;;;;;;;19.16;53.73;100349.13;5059400;28;20117;-65
2021/10/05 08:17:21;;;;;;;3.33;0.93;;;;;;;19.38;53.81;100350.78;5061973;28;20227;-63
2021/10/05 08:19:47;;;;;;;1.98;0.77;;;;;;;19.18;53.60;100335.72;5055000;28;20045;-66
2021/10/05 08:22:13;;;;;;;4.22;1.05;;;;;;;20.39;50.62;100352.69;5056260;28;20224;-66
2021/10/05 08:24:38;;;;;;;6.55;0.98;;;;;;;20.97;52.76;100342.09;5053743;28;20111;-74
2021/10/05 08:27:05;;;;;;;2.88;1.02;;;;;;;17.46;58.15;100335.41;5070211;28;20033;-65
2021/10/05 08:29:32;;;;;;;3.03;0.85;;;;;;;17.95;56.44;100335.16;5053974;28;20059;-67
2021/10/05 08:31:58;;;;;;;3.28;1.05;;;;;;;17.30;59.08;100334.03;5060910;28;20067;-66
2021/10/05 08:34:23;;;;;;;5.18;1.05;;;;;;;17.65;57.85;100339.25;5056225;28;20049;-65
2021/10/05 08:36:48;;;;;;;5.45;1.10;;;;;;;17.33;58.22;100336.44;5055899;28;20040;-65
2021/10/05 08:39:16;;;;;;;1.58;1.02;;;;;;;17.34;59.42;100340.78;5056823;28;20397;-64
2021/10/05 08:41:45;;;;;;;3.50;0.95;;;;;;;17.00;62.51;100349.47;5058886;28;20059;-64
2021/10/05 08:44:10;;;;;;;;;;;;;;;16.79;61.89;100338.69;5057160;28;20044;-64
2021/10/05 08:46:37;;;;;;;2.45;0.85;;;;;;;15.25;65.34;100325.03;5053458;28;19952;-65
2021/10/05 08:49:02;;;;;;;6.43;1.20;;;;;;;15.14;66.01;100328.38;5048381;28;20030;-64
2021/10/05 08:51:28;;;;;;;1.65;0.55;;;;;;;15.83;63.72;100328.91;5050056;28;20044;-65
2021/10/05 08:53:53;;;;;;;2.38;0.73;;;;;;;16.03;63.21;100329.28;5056296;28;20242;-64
2021/10/05 08:56:18;;;;;;;2.08;0.80;;;;;;;15.88;62.81;100310.94;5050046;28;20033;-64
2021/10/05 08:58:44;;;;;;;3.25;1.20;;;;;;;15.60;65.51;100305.91;5049880;28;20037;-64
2021/10/05 09:01:12;;;;;;;2.95;0.80;;;;;;;16.08;63.89;100309.53;5049528;28;20064;-64
2021/10/05 09:03:38;;;;;;;2.80;0.60;;;;;;;16.01;64.66;100313.56;5050848;28;20047;-63
2021/10/05 09:06:11;;;;;;;3.42;0.85;;;;;;;15.28;65.14;100308.97;5056398;28;20063;-65
2021/10/05 09:08:38;;;;;;;3.42;0.70;;;;;;;16.15;63.84;100304.63;5057224;28;20561;-64
2021/10/05 09:11:04;;;;;;;5.82;1.08;;;;;;;15.29;65.71;100311.50;5056553;28;20235;-64
2021/10/05 09:13:34;;;;;;;5.00;1.23;;;;;;;16.15;64.36;100309.91;5056542;28;20045;-64
2021/10/05 09:15:59;;;;;;;4.75;0.80;;;;;;;16.47;62.88;100304.06;5058500;28;20105;-64
2021/10/05 09:18:24;;;;;;;2.17;0.63;;;;;;;15.85;65.94;100299.75;5061033;28;20099;-62
2021/10/05 09:20:50;;;;;;;4.97;0.82;;;;;;;15.97;64.50;100298.03;5058429;28;20059;-64
2021/10/05 09:23:15;;;;;;;2.20;0.50;;;;;;;16.32;64.72;100308.69;5068891;28;20216;-64
2021/10/05 09:25:53;;;;;;;2.22;0.70;;;;;;;15.84;64.30;100308.63;5052061;28;20275;-64
2021/10/05 09:28:26;;;;;;;12.18;1.00;;;;;;;16.40;63.63;100297.56;5051554;28;20155;-63
2021/10/05 09:31:00;;;;;;;3.10;0.93;;;;;;;16.11;64.11;100303.16;5054048;28;20048;-64
2021/10/05 09:33:26;;;;;;;4.95;0.65;;;;;;;16.47;65.53;100302.25;5053213;28;20041;-64
2021/10/05 09:35:51;;;;;;;2.80;1.08;;;;;;;15.87;64.83;100297.84;5064647;28;20074;-64
2021/10/05 09:38:19;;;;;;;1.95;0.95;;;;;;;16.88;64.85;100295.72;5054570;28;20060;-64
2021/10/05 09:40:59;;;;;;;8.30;1.37;;;;;;;15.48;65.37;100287.34;5054536;28;20045;-65
2021/10/05 09:43:24;;;;;;;4.35;0.85;;;;;;;15.75;66.49;100289.00;5046242;28;20033;-64
2021/10/05 09:45:50;;;;;;;7.10;1.35;;;;;;;16.42;64.12;100282.41;5049864;28;20036;-63
2021/10/05 09:48:16;;;;;;;4.57;1.40;;;;;;;15.45;66.50;100281.44;5053176;28;20613;-65
2021/10/05 09:50:42;;;;;;;4.63;1.00;;;;;;;16.32;64.31;100274.34;5049315;28;20033;-64
2021/10/05 09:53:09;;;;;;;2.70;0.90;;;;;;;15.69;66.71;100286.78;5044585;28;20045;-64
2021/10/05 09:55:36;;;;;;;2.20;1.02;;;;;;;16.67;66.70;100290.22;5049276;28;20104;-63
2021/10/05 09:58:02;;;;;;;8.13;0.90;;;;;;;16.83;64.07;100289.94;5050984;28;20278;-64
2021/10/05 10:00:29;;;;;;;3.05;0.88;;;;;;;16.02;65.47;100280.88;5055864;28;20040;-63
2021/10/05 10:02:55;;;;;;;1.42;0.90;;;;;;;16.53;63.29;100277.19;5049852;28;20048;-63
2021/10/05 10:05:21;;;;;;;5.93;0.90;;;;;;;17.73;63.29;100264.50;5035761;28;20334;-61
2021/10/05 10:07:49;;;;;;;3.55;0.80;;;;;;;18.80;60.46;100268.97;5053532;28;20403;-60
2021/10/05 10:10:16;;;;;;;5.68;1.00;;;;;;;19.33;58.89;100264.53;5053623;28;20045;-62
2021/10/05 10:12:49;;;;;;;10.73;1.50;;;;;;;19.59;58.42;100246.31;5058906;28;20043;-61
2021/10/05 10:15:14;;;;;;;5.60;0.85;;;;;;;19.72;58.12;100249.59;5045167;28;20062;-60
2021/10/05 10:17:40;;;;;;;1.98;0.63;;;;;;;19.82;58.21;100243.50;5052668;28;20024;-61
2021/10/05 10:20:07;;;;;;;3.03;0.70;;;;;;;19.90;58.12;100243.63;5062327;28;20066;-60
2021/10/05 10:22:45;;;;;;;7.20;1.05;;;;;;;19.95;58.16;100246.72;5053804;28;20045;-60
2021/10/05 10:25:22;;;;;;;6.40;1.00;;;;;;;19.96;57.99;100240.44;5057316;28;20336;-60
2021/10/05 10:27:47;;;;;;;12.32;1.55;;;;;;;19.94;58.59;100232.59;5046604;28;20347;-61
2021/10/05 10:30:13;;;;;;;9.18;1.40;;;;;;;20.03;58.95;100236.25;5052536;28;20036;-61
2021/10/05 10:32:47;;;;;;;4.25;0.95;;;;;;;20.10;58.70;100236.53;5052441;28;20044;-60
2021/10/05 10:35:13;;;;;;;6.00;1.10;;;;;;;20.18;58.07;100223.38;5053943;28;20021;-60
2021/10/05 10:38:04;;;;;;;16.13;1.20;;;;;;;20.31;58.33;100225.75;5051003;28;20047;-61
2021/10/05 10:40:35;;;;;;;14.07;1.20;;;;;;;20.40;58.13;100224.09;5046399;28;20310;-59
2021/10/05 10:43:13;;;;;;;8.10;1.67;;;;;;;20.44;57.62;100218.31;5056416;28;20043;-60
2021/10/05 10:45:43;;;;;;;7.32;1.20;;;;;;;20.59;57.63;100220.56;5038902;28;20157;-60
2021/10/05 10:48:09;;;;;;;7.90;1.35;;;;;;;20.48;58.01;100210.91;5053942;28;20317;-60
2021/10/05 10:50:34;;;;;;;8.20;1.02;;;;;;;20.39;58.45;100211.75;5062855;28;20036;-59
2021/10/05 10:53:04;;;;;;;11.45;1.60;;;;;;;20.41;59.56;100201.81;5056233;28;20045;-60
2021/10/05 10:55:32;;;;;;;12.07;1.40;;;;;;;20.39;60.12;100204.66;5044449;28;20052;-60
2021/10/05 10:57:58;;;;;;;7.22;1.55;;;;;;;20.37;60.16;100209.25;5057238;28;20036;-61
2021/10/05 11:00:24;;;;;;;8.50;1.00;;;;;;;20.31;60.42;100212.47;5053179;28;20382;-62
2021/10/05 11:02:51;;;;;;;3.90;1.00;;;;;;;20.27;61.14;100213.75;5054222;28;20079;-62
2021/10/05 11:05:20;;;;;;;16.40;1.80;;;;;;;20.24;62.06;100212.19;5050053;28;20048;-60
2021/10/05 11:07:46;;;;;;;9.43;1.58;;;;;;;20.26;62.48;100207.56;5071708;28;20047;-60
2021/10/05 11:10:11;;;;;;;2.90;1.00;;;;;;;20.23;62.53;100212.31;5048951;28;20025;-59
2021/10/05 11:12:39;;;;;;;9.63;1.45;;;;;;;20.22;62.60;100206.16;5049214;28;20052;-60
2021/10/05 11:15:09;;;;;;;7.20;1.10;;;;;;;20.23;62.59;100205.22;5053384;28;20045;-60
2021/10/05 11:17:34;;;;;;;9.52;1.48;;;;;;;20.22;62.74;100210.66;5048947;28;20068;-60
2021/10/05 11:20:07;;;;;;;13.13;1.38;;;;;;;20.16;60.21;100206.75;5051740;28;20024;-61
2021/10/05 11:22:32;;;;;;;3.35;1.17;;;;;;;20.12;61.85;100198.22;5051844;28;20303;-67